createdAt,value
2023-12-13T05:00:37.214Z,99089.16
2023-12-13T05:03:43.731Z,99097.47
2023-12-13T05:06:47.718Z,99107.31
2023-12-13T05:13:55.867Z,99093.00
2023-12-13T05:17:44.242Z,99095.84
2023-12-13T05:46:07.298Z,99097.34
2023-12-13T05:49:13.292Z,99087.69
2023-12-13T05:52:16.462Z,99080.38
2023-12-13T05:55:19.956Z,99083.72
2023-12-13T05:58:23.015Z,99085.69
2023-12-13T06:01:32.637Z,99081.69
2023-12-13T06:04:36.357Z,99076.22
2023-12-13T06:07:39.470Z,99072.19
2023-12-13T06:10:43.691Z,99068.06
2023-12-13T06:14:02.437Z,99072.53
2023-12-13T06:17:05.755Z,99060.91
2023-12-13T06:20:09.352Z,99063.59
2023-12-13T06:23:12.450Z,99054.41
2023-12-13T06:26:15.182Z,99050.28
2023-12-13T06:29:21.426Z,99042.78
2023-12-13T06:32:24.452Z,99041.44
2023-12-13T06:35:27.713Z,99041.28
2023-12-13T06:38:30.543Z,99046.75
2023-12-13T06:41:33.966Z,99052.25
2023-12-13T06:44:38.341Z,99059.25
2023-12-13T06:47:41.555Z,99058.56
2023-12-13T06:50:44.508Z,99063.59
2023-12-13T06:53:47.853Z,99064.72
2023-12-13T06:56:50.552Z,99074.06
2023-12-13T06:59:53.781Z,99067.56
2023-12-13T07:02:56.772Z,99063.91
2023-12-13T07:06:00.227Z,99049.41
2023-12-13T07:09:03.847Z,99045.94
2023-12-13T07:12:07.231Z,99053.44
2023-12-13T07:15:12.469Z,99052.56
2023-12-13T07:18:19.433Z,99050.25
2023-12-13T07:21:22.619Z,99060.91
2023-12-13T07:24:25.630Z,99055.56
2023-12-13T07:27:28.989Z,99053.72
2023-12-13T07:30:32.405Z,99051.91
2023-12-13T07:33:39.930Z,99051.59
2023-12-13T07:36:49.745Z,99054.56
2023-12-13T07:39:52.979Z,99047.59
2023-12-13T07:42:58.167Z,99053.91
2023-12-13T07:46:01.246Z,99050.75
2023-12-13T07:49:04.888Z,99053.09
2023-12-13T07:52:08.337Z,99040.75
2023-12-13T07:55:11.404Z,99033.97
2023-12-13T07:58:16.457Z,99033.63
2023-12-13T08:01:19.706Z,99033.78
2023-12-13T08:04:23.242Z,99011.00
2023-12-13T08:07:26.272Z,99013.50
2023-12-13T08:10:29.516Z,99014.84
2023-12-13T08:13:32.640Z,99008.84
2023-12-13T08:16:35.781Z,98996.38
2023-12-13T08:19:39.379Z,99012.00
2023-12-13T08:22:42.640Z,99004.19
2023-12-13T08:25:45.650Z,99001.19
2023-12-13T08:28:55.649Z,98997.19
2023-12-13T08:32:05.757Z,98994.84
2023-12-13T08:35:08.952Z,98997.34
2023-12-13T08:38:11.957Z,98994.53
2023-12-13T08:41:16.294Z,98989.19
2023-12-13T08:44:20.562Z,98999.03
2023-12-13T08:47:24.927Z,99003.34
2023-12-13T08:50:29.846Z,99001.16
2023-12-13T08:53:33.304Z,99004.31
2023-12-13T08:56:36.577Z,99001.63
2023-12-13T08:59:39.836Z,98998.50
2023-12-13T09:02:42.618Z,99005.66
2023-12-13T09:05:47.198Z,99015.63
2023-12-13T09:08:50.175Z,99009.13
2023-12-13T09:11:53.569Z,99004.00
2023-12-13T09:15:07.592Z,98997.19
2023-12-13T09:18:11.359Z,98997.34
2023-12-13T09:21:15.380Z,98996.84
2023-12-13T09:24:18.967Z,98985.19
2023-12-13T09:27:24.192Z,98988.72
2023-12-13T09:30:27.573Z,98985.38
2023-12-13T09:33:31.777Z,98988.19
2023-12-13T09:36:35.631Z,98991.03
2023-12-13T09:39:41.304Z,98995.84
2023-12-13T09:42:46.877Z,98999.69
2023-12-13T09:45:55.133Z,98988.22
2023-12-13T09:48:58.736Z,98987.87
2023-12-13T09:52:07.604Z,98986.06
2023-12-13T09:55:14.361Z,98990.38
2023-12-13T09:58:17.025Z,98993.56
2023-12-13T10:01:20.359Z,98997.19
2023-12-13T10:04:29.834Z,98995.19
2023-12-13T10:07:33.073Z,98987.06
2023-12-13T10:10:38.781Z,98986.38
2023-12-13T10:13:41.591Z,98993.84
2023-12-13T10:16:45.661Z,98992.84
2023-12-13T10:19:49.454Z,98989.34
2023-12-13T10:22:52.555Z,98982.38
2023-12-13T10:25:55.853Z,98973.38
2023-12-13T10:29:01.475Z,98971.06
2023-12-13T10:32:04.742Z,98972.06
2023-12-13T10:35:10.506Z,98970.72
2023-12-13T10:38:15.367Z,98958.41
2023-12-13T10:41:18.814Z,98963.38
2023-12-13T10:44:24.233Z,98961.88
2023-12-13T10:47:28.454Z,98957.41
2023-12-13T10:50:32.454Z,98947.22
2023-12-13T10:53:37.213Z,98937.38
2023-12-13T10:56:42.300Z,98939.22
2023-12-13T10:59:46.817Z,98935.38
2023-12-13T11:02:54.858Z,98924.25
2023-12-13T11:05:57.796Z,98914.69
2023-12-13T11:09:15.109Z,98911.56
2023-12-13T11:12:20.069Z,98910.06
2023-12-13T11:15:23.077Z,98908.72
2023-12-13T11:18:26.843Z,98897.91
2023-12-13T11:21:32.448Z,98894.47
2023-12-13T11:24:37.775Z,98897.97
2023-12-13T11:27:54.707Z,98893.47
2023-12-13T11:30:59.953Z,98884.97
2023-12-13T11:34:06.478Z,98884.09
2023-12-13T11:37:12.567Z,98880.25
2023-12-13T11:40:16.942Z,98866.59
2023-12-13T11:43:20.412Z,98868.75
2023-12-13T11:46:23.404Z,98870.19
2023-12-13T11:49:27.446Z,98869.41
2023-12-13T11:52:30.419Z,98860.31
2023-12-13T11:55:33.575Z,98865.13
2023-12-13T11:58:36.966Z,98865.59
2023-12-13T12:01:41.480Z,98862.06
2023-12-13T12:04:46.144Z,98857.91
2023-12-13T12:08:07.805Z,98861.75
2023-12-13T12:11:14.316Z,98864.06
2023-12-13T12:14:17.317Z,98868.91
2023-12-13T12:17:20.909Z,98870.91
2023-12-13T12:20:25.498Z,98870.22
2023-12-13T12:23:31.790Z,98878.56
2023-12-13T12:26:34.637Z,98872.09
2023-12-13T12:29:42.657Z,98874.28
2023-12-13T12:32:46.317Z,98889.75
2023-12-13T12:35:49.656Z,98891.59
2023-12-13T12:38:55.615Z,98890.94
2023-12-13T12:41:58.644Z,98893.09
2023-12-13T12:45:01.662Z,98884.31
2023-12-13T12:48:04.886Z,98888.63
2023-12-13T12:51:07.688Z,98892.59
2023-12-13T12:54:10.963Z,98895.09
2023-12-13T12:57:14.143Z,98891.25
2023-12-13T13:00:19.734Z,98883.78
2023-12-13T13:03:22.922Z,98877.47
2023-12-13T13:06:26.405Z,98866.66
2023-12-13T13:09:31.363Z,98871.34
2023-12-13T13:12:40.235Z,98877.81
2023-12-13T13:15:43.557Z,98876.78
2023-12-13T13:18:48.717Z,98874.41
2023-12-13T13:21:52.526Z,98868.78
2023-12-13T13:24:55.890Z,98862.62
2023-12-13T13:27:58.550Z,98853.78
2023-12-13T13:31:01.879Z,98859.44
2023-12-13T13:34:04.801Z,98867.44
2023-12-13T13:37:07.996Z,98861.75
2023-12-13T13:40:11.393Z,98854.78
2023-12-13T13:43:14.468Z,98841.25
2023-12-13T13:46:17.865Z,98840.88
2023-12-13T13:49:21.277Z,98845.16
2023-12-13T13:52:24.247Z,98858.13
2023-12-13T13:55:27.579Z,98851.31
2023-12-13T13:58:30.871Z,98863.00
2023-12-13T14:01:34.113Z,98851.44
2023-12-13T14:04:37.462Z,98849.13
2023-12-13T14:07:40.722Z,98851.19
2023-12-13T14:10:44.849Z,98853.69
2023-12-13T14:13:48.532Z,98851.53
2023-12-13T14:16:51.587Z,98851.34
2023-12-13T14:19:54.247Z,98861.16
2023-12-13T14:22:57.164Z,98859.81
2023-12-13T14:25:59.895Z,98861.88
2023-12-13T14:29:04.780Z,98867.53
2023-12-13T14:32:08.575Z,98867.19
2023-12-13T14:35:12.514Z,98866.66
2023-12-13T14:38:16.773Z,98862.44
2023-12-13T14:41:20.162Z,98865.06
2023-12-13T14:44:23.588Z,98868.44
2023-12-13T14:47:26.600Z,98877.41
2023-12-13T14:50:29.282Z,98879.09
2023-12-13T14:53:32.618Z,98883.94
2023-12-13T14:56:37.344Z,98881.78
2023-12-13T14:59:41.517Z,98879.94
2023-12-13T15:02:45.377Z,98869.66
2023-12-13T15:05:48.746Z,98873.13
2023-12-13T15:08:51.721Z,98866.50
2023-12-13T15:11:54.812Z,98865.00
2023-12-13T15:14:57.590Z,98862.81
2023-12-13T15:18:00.658Z,98860.84
2023-12-13T15:21:03.884Z,98860.19
2023-12-13T15:24:07.676Z,98857.03
2023-12-13T15:27:15.158Z,98860.50
2023-12-13T15:30:18.119Z,98845.22
2023-12-13T15:33:21.136Z,98843.94
2023-12-13T15:36:24.520Z,98854.72
2023-12-13T15:39:27.164Z,98847.22
2023-12-13T15:42:30.166Z,98842.59
2023-12-13T15:45:32.764Z,98827.28
2023-12-13T15:48:35.943Z,98837.47
2023-12-13T15:51:38.932Z,98838.50
2023-12-13T15:54:47.223Z,98825.34
2023-12-13T15:57:50.172Z,98831.34
2023-12-13T16:00:53.431Z,98830.66
2023-12-13T16:03:58.380Z,98833.69
2023-12-13T16:07:01.895Z,98845.16
2023-12-13T16:10:05.353Z,98841.84
2023-12-13T16:13:08.394Z,98846.12
2023-12-13T16:16:16.577Z,98847.12
2023-12-13T16:19:19.586Z,98856.25
2023-12-13T16:22:22.637Z,98858.75
2023-12-13T16:25:25.520Z,98853.44
2023-12-13T16:28:28.543Z,98859.38
2023-12-13T16:31:34.901Z,98857.59
2023-12-13T16:34:37.813Z,98855.78
2023-12-13T16:37:44.941Z,98843.63
2023-12-13T16:40:48.248Z,98837.47
2023-12-13T16:43:53.053Z,98843.94
2023-12-13T16:46:56.513Z,98837.78
2023-12-13T16:49:59.582Z,98829.13
2023-12-13T16:53:02.601Z,98826.28
2023-12-13T16:56:05.512Z,98825.44
2023-12-13T16:59:08.786Z,98817.94
2023-12-13T17:02:13.741Z,98815.16
